Time;durP1;ratioP1;P1;durP2;ratioP2;P2;SDS_P1;SDS_P2;PMS_P1;PMS_P2;Temp;Humidity;BMP_temperature;BMP_pressure;BME280_temperature;BME280_humidity;BME280_pressure;Samples;Min_cycle;Max_cycle;Signal;HPM_P1;HPM_P2
2024/01/12 00:02:04;;;;;;;10.77;7.20;;;-5.60;99.90;;;;;;5053747;28;20736;-58
2024/01/12 00:04:31;;;;;;;8.23;6.53;;;-5.60;99.90;;;;;;5052547;28;20214;-60
2024/01/12 00:06:59;;;;;;;8.73;7.50;;;-5.60;99.90;;;;;;5053182;28;20306;-59
2024/01/12 00:09:26;;;;;;;9.70;5.80;;;-5.60;99.90;;;;;;5052698;28;20229;-59
2024/01/12 00:11:52;;;;;;;9.73;6.70;;;-5.60;99.90;;;;;;5052761;28;20206;-60
2024/01/12 00:14:19;;;;;;;9.52;6.47;;;-5.60;99.90;;;;;;5053220;28;20645;-59
2024/01/12 00:16:48;;;;;;;8.65;6.75;;;-5.60;99.90;;;;;;5053168;28;20202;-59
2024/01/12 00:19:17;;;;;;;10.18;7.00;;;-5.70;99.90;;;;;;5052450;28;20741;-58
2024/01/12 00:21:44;;;;;;;6.03;5.38;;;-5.70;99.90;;;;;;5053410;28;20218;-58
2024/01/12 00:24:12;;;;;;;5.80;5.32;;;-5.70;99.90;;;;;;5051477;28;20242;-60
2024/01/12 00:26:39;;;;;;;8.85;5.88;;;-5.70;99.90;;;;;;5053220;28;20202;-60
2024/01/12 00:29:06;;;;;;;9.15;5.78;;;-5.70;99.90;;;;;;5053326;28;20226;-61
2024/01/12 00:31:33;;;;;;;6.68;6.07;;;-5.70;99.90;;;;;;5053272;28;20202;-57
2024/01/12 00:34:00;;;;;;;5.25;4.85;;;-5.70;99.90;;;;;;5053420;28;20309;-59
2024/01/12 00:36:27;;;;;;;9.63;5.97;;;-5.70;99.90;;;;;;5052942;28;20301;-59
2024/01/12 00:38:54;;;;;;;9.93;6.55;;;-5.70;99.90;;;;;;5052887;28;20680;-59
2024/01/12 00:41:22;;;;;;;7.20;6.25;;;-5.70;99.90;;;;;;5052779;28;20209;-59
2024/01/12 00:43:49;;;;;;;9.40;6.97;;;-5.80;99.90;;;;;;5053101;28;20234;-60
2024/01/12 00:46:16;;;;;;;9.98;6.40;;;-5.80;99.90;;;;;;5052956;28;20289;-59
2024/01/12 00:48:43;;;;;;;10.63;6.88;;;-5.80;99.90;;;;;;5053188;28;20241;-59
2024/01/12 00:51:11;;;;;;;7.88;5.97;;;-5.80;99.90;;;;;;5052352;28;20219;-59
2024/01/12 00:53:38;;;;;;;6.63;5.18;;;-5.80;99.90;;;;;;5052520;28;20242;-60
2024/01/12 00:56:05;;;;;;;8.00;6.32;;;-5.80;99.90;;;;;;5052409;28;20297;-58
2024/01/12 00:58:34;;;;;;;8.70;6.60;;;-5.90;99.90;;;;;;5051967;28;20262;-58
2024/01/12 01:01:01;;;;;;;8.43;7.45;;;-5.90;99.90;;;;;;5049738;28;20225;-56
2024/01/12 01:03:28;;;;;;;6.82;5.93;;;-5.90;99.90;;;;;;5044972;28;20226;-59
2024/01/12 01:05:55;;;;;;;9.00;7.18;;;-5.90;99.90;;;;;;5045497;28;20205;-58
2024/01/12 01:08:22;;;;;;;9.55;7.85;;;-5.90;99.90;;;;;;5049612;28;20631;-59
2024/01/12 01:10:49;;;;;;;7.88;7.05;;;-5.90;99.90;;;;;;5051029;28;20202;-58
2024/01/12 01:13:15;;;;;;;12.75;7.03;;;-5.90;99.90;;;;;;5051857;28;20228;-59
2024/01/12 01:15:44;;;;;;;14.60;8.88;;;-5.90;99.90;;;;;;5051980;28;20293;-59
2024/01/12 01:18:11;;;;;;;9.63;6.32;;;-5.90;99.90;;;;;;5051587;28;20244;-57
2024/01/12 01:20:38;;;;;;;12.88;8.40;;;-6.00;99.90;;;;;;5051898;28;20301;-57
2024/01/12 01:23:05;;;;;;;13.30;8.23;;;-6.00;99.90;;;;;;5079735;22;20230;-59
2024/01/12 01:25:33;;;;;;;16.83;10.35;;;-6.00;99.90;;;;;;5071279;28;20216;-62
2024/01/12 01:28:00;;;;;;;16.42;9.73;;;-6.00;99.90;;;;;;5071035;28;20205;-60
2024/01/12 01:30:27;;;;;;;15.80;8.88;;;-6.00;99.90;;;;;;5070908;28;20229;-60
2024/01/12 01:32:55;;;;;;;9.18;8.07;;;-6.10;99.90;;;;;;5070697;28;20316;-62
2024/01/12 01:35:22;;;;;;;9.88;8.20;;;-6.00;99.90;;;;;;5070875;28;20213;-62
2024/01/12 01:37:50;;;;;;;13.18;8.25;;;-6.10;99.90;;;;;;5071061;28;20297;-61
2024/01/12 01:40:17;;;;;;;18.48;9.20;;;-6.10;99.90;;;;;;5070893;28;20210;-61
2024/01/12 01:42:47;;;;;;;14.20;8.75;;;-6.10;99.90;;;;;;5071084;28;20233;-61
2024/01/12 01:45:15;;;;;;;10.90;8.73;;;-6.10;99.90;;;;;;5071087;28;20279;-62
2024/01/12 01:47:42;;;;;;;12.82;11.50;;;-6.10;99.90;;;;;;5070705;28;20209;-62
2024/01/12 01:50:11;;;;;;;10.82;8.75;;;-6.10;99.90;;;;;;5070472;28;20576;-60
2024/01/12 01:52:39;;;;;;;12.60;9.35;;;-6.20;99.90;;;;;;5070532;28;20595;-62
2024/01/12 01:55:06;;;;;;;14.70;8.80;;;-6.20;99.90;;;;;;5069869;28;20205;-61
2024/01/12 01:57:34;;;;;;;10.95;9.40;;;-6.20;99.90;;;;;;5070824;28;20264;-60
2024/01/12 02:00:02;;;;;;;10.32;9.20;;;-6.20;99.90;;;;;;5070643;28;20280;-60
2024/01/12 02:02:29;;;;;;;16.52;10.90;;;-6.20;99.90;;;;;;5070502;28;20210;-60
2024/01/12 02:04:59;;;;;;;21.20;11.60;;;-6.20;99.90;;;;;;5070567;28;20212;-62
2024/01/12 02:07:28;;;;;;;10.40;9.30;;;-6.10;99.90;;;;;;5070525;28;20239;-61
2024/01/12 02:09:57;;;;;;;12.95;9.07;;;-6.00;99.90;;;;;;5070452;28;20320;-60
2024/01/12 02:12:23;;;;;;;19.92;11.23;;;-6.00;99.90;;;;;;5070326;28;20304;-60
2024/01/12 02:14:50;;;;;;;12.65;9.10;;;-5.90;99.90;;;;;;5070548;28;20224;-60
2024/01/12 02:17:18;;;;;;;14.35;8.90;;;-5.90;99.90;;;;;;5070669;28;20599;-62
2024/01/12 02:19:45;;;;;;;15.63;11.77;;;-5.80;99.90;;;;;;5070635;28;20208;-62
2024/01/12 02:22:13;;;;;;;15.27;10.32;;;-5.70;99.90;;;;;;5070518;28;20206;-62
2024/01/12 02:24:40;;;;;;;14.90;10.30;;;-5.60;99.90;;;;;;5072910;28;20235;-61
2024/01/12 02:27:07;;;;;;;14.70;10.65;;;-5.50;99.90;;;;;;5073940;28;20228;-61
2024/01/12 02:29:34;;;;;;;16.65;10.88;;;-5.50;99.90;;;;;;5073680;28;20304;-59
2024/01/12 02:32:01;;;;;;;13.57;11.80;;;-5.40;99.90;;;;;;5074309;28;20210;-61
2024/01/12 02:34:27;;;;;;;15.23;11.90;;;-5.30;99.90;;;;;;5074571;28;20722;-62
2024/01/12 02:36:54;;;;;;;17.13;10.38;;;-5.20;99.90;;;;;;5074646;28;20212;-60
2024/01/12 02:39:22;;;;;;;14.35;10.70;;;-5.20;99.90;;;;;;5074433;28;20812;-61
2024/01/12 02:41:49;;;;;;;15.07;10.35;;;-5.10;99.90;;;;;;5074453;28;20620;-61
2024/01/12 02:44:16;;;;;;;15.32;11.10;;;-5.10;99.90;;;;;;5074347;28;20236;-60
2024/01/12 02:46:43;;;;;;;16.70;11.43;;;-5.00;99.90;;;;;;5074604;28;20212;-61
2024/01/12 02:49:10;;;;;;;26.70;12.60;;;-4.90;99.90;;;;;;5074190;28;20321;-61
2024/01/12 02:51:37;;;;;;;10.60;9.20;;;-4.90;99.90;;;;;;5074265;28;20205;-61
2024/01/12 02:54:03;;;;;;;13.07;9.20;;;-4.80;99.90;;;;;;5074134;28;20232;-60
2024/01/12 02:56:31;;;;;;;15.13;10.68;;;-4.70;99.90;;;;;;5074091;28;20202;-59
2024/01/12 02:58:58;;;;;;;17.55;11.80;;;-4.70;99.90;;;;;;5074086;28;20294;-60
2024/01/12 03:01:25;;;;;;;12.70;9.73;;;-4.60;99.90;;;;;;5073943;28;20206;-60
2024/01/12 03:03:52;;;;;;;19.92;12.10;;;-4.50;99.90;;;;;;5074110;28;20313;-60
2024/01/12 03:06:18;;;;;;;16.55;11.07;;;-4.50;99.90;;;;;;5074070;28;20228;-61
2024/01/12 03:08:45;;;;;;;14.82;11.20;;;-4.40;99.90;;;;;;5073891;28;20216;-60
2024/01/12 03:11:12;;;;;;;15.82;10.95;;;-4.40;99.90;;;;;;5073796;28;20721;-60
2024/01/12 03:13:40;;;;;;;12.30;9.55;;;-4.30;99.90;;;;;;5074089;28;20226;-60
2024/01/12 03:16:07;;;;;;;18.92;13.77;;;-4.30;99.90;;;;;;5074016;28;20314;-61
2024/01/12 03:18:34;;;;;;;16.40;9.70;;;-4.30;99.90;;;;;;5073798;28;20206;-61
2024/01/12 03:21:01;;;;;;;15.02;11.88;;;-4.20;99.90;;;;;;5073506;28;20292;-61
2024/01/12 03:23:27;;;;;;;19.48;11.82;;;-4.10;99.90;;;;;;5073509;28;20336;-60
2024/01/12 03:25:54;;;;;;;16.30;11.82;;;-4.10;99.90;;;;;;5073724;28;20212;-61
2024/01/12 03:28:21;;;;;;;15.68;11.70;;;-4.00;99.90;;;;;;5073685;28;20643;-61
2024/01/12 03:30:49;;;;;;;13.38;9.20;;;-4.00;99.90;;;;;;5072291;28;20226;-62
2024/01/12 03:33:16;;;;;;;16.15;10.45;;;-4.00;99.90;;;;;;5073331;28;20240;-61
2024/01/12 03:35:43;;;;;;;15.75;12.32;;;-3.90;99.90;;;;;;5072852;28;20212;-62
2024/01/12 03:38:12;;;;;;;13.13;10.00;;;-3.80;99.90;;;;;;5073111;28;20232;-60
2024/01/12 03:40:39;;;;;;;11.60;10.48;;;-3.80;99.90;;;;;;5073094;28;20212;-61
2024/01/12 03:43:06;;;;;;;19.30;11.90;;;-3.80;99.90;;;;;;5073095;28;20313;-61
2024/01/12 03:45:33;;;;;;;17.33;11.68;;;-3.70;99.90;;;;;;5073440;28;20714;-60
2024/01/12 03:48:01;;;;;;;15.68;10.90;;;-3.70;99.90;;;;;;5073257;28;20623;-61
2024/01/12 03:50:28;;;;;;;13.65;10.00;;;-3.70;99.90;;;;;;5072843;28;20231;-61
2024/01/12 03:52:54;;;;;;;11.77;9.65;;;-3.60;99.90;;;;;;5073236;28;20229;-62
2024/01/12 03:55:21;;;;;;;15.43;11.32;;;-3.60;99.90;;;;;;5073260;28;20214;-61
2024/01/12 03:57:48;;;;;;;13.68;9.90;;;-3.50;99.90;;;;;;5072676;28;20739;-62
2024/01/12 04:00:15;;;;;;;18.02;12.50;;;-3.50;99.90;;;;;;5071876;28;20214;-61
2024/01/12 04:02:42;;;;;;;15.50;11.70;;;-3.50;99.90;;;;;;5072726;28;20206;-62
2024/01/12 04:05:10;;;;;;;13.73;11.07;;;-3.40;99.90;;;;;;5072665;28;20559;-60
2024/01/12 04:07:37;;;;;;;14.10;11.65;;;-3.40;99.90;;;;;;5073099;28;20244;-61
2024/01/12 04:10:05;;;;;;;18.42;11.90;;;-3.30;99.90;;;;;;5072534;28;20229;-61
2024/01/12 04:12:31;;;;;;;14.93;13.38;;;-3.30;99.90;;;;;;5072820;28;20205;-61
2024/01/12 04:14:58;;;;;;;11.57;10.40;;;-3.20;99.90;;;;;;5071531;28;20671;-61
2024/01/12 04:17:25;;;;;;;17.70;12.40;;;-3.20;99.90;;;;;;5072559;28;20208;-61
2024/01/12 04:19:52;;;;;;;13.75;10.10;;;-3.20;99.90;;;;;;5072480;28;20694;-60
2024/01/12 04:22:20;;;;;;;13.63;10.00;;;-3.20;99.90;;;;;;5072514;28;20281;-62
2024/01/12 04:24:47;;;;;;;14.85;10.88;;;-3.10;99.90;;;;;;5072359;28;20329;-61
2024/01/12 04:27:13;;;;;;;12.85;10.38;;;-3.10;99.90;;;;;;5072405;28;20209;-61
2024/01/12 04:29:40;;;;;;;18.08;11.13;;;-3.00;99.90;;;;;;5072287;28;20228;-61
2024/01/12 04:32:07;;;;;;;16.55;10.88;;;-3.00;99.90;;;;;;5072320;28;20216;-61
2024/01/12 04:34:36;;;;;;;12.88;10.57;;;-3.00;99.90;;;;;;5072156;28;20235;-62
2024/01/12 04:37:03;;;;;;;19.90;11.55;;;-3.00;99.90;;;;;;5072312;28;20221;-62
2024/01/12 04:39:31;;;;;;;14.85;11.10;;;-2.90;99.90;;;;;;5072178;28;20619;-60
2024/01/12 04:41:57;;;;;;;13.85;10.48;;;-2.90;99.90;;;;;;5072201;28;20224;-61
2024/01/12 04:44:24;;;;;;;18.02;10.35;;;-2.90;99.90;;;;;;5072205;28;20312;-60
2024/01/12 04:46:51;;;;;;;13.75;10.63;;;-2.80;99.90;;;;;;5071582;28;20586;-62
2024/01/12 04:49:18;;;;;;;10.75;9.52;;;-2.80;99.90;;;;;;5071682;28;20212;-62
2024/01/12 04:51:45;;;;;;;12.75;11.35;;;-2.80;99.90;;;;;;5072081;28;20297;-62
2024/01/12 04:54:12;;;;;;;11.82;10.23;;;-2.80;99.90;;;;;;5071963;28;20235;-62
2024/01/12 04:56:40;;;;;;;18.23;10.48;;;-2.70;99.90;;;;;;5071848;28;20208;-62
2024/01/12 04:59:07;;;;;;;12.13;10.02;;;-2.70;99.90;;;;;;5071899;28;20301;-62
2024/01/12 05:01:34;;;;;;;15.10;11.60;;;-2.70;99.90;;;;;;5071814;28;20288;-63
2024/01/12 05:04:01;;;;;;;14.98;10.48;;;-2.60;99.90;;;;;;5071462;28;20343;-63
2024/01/12 05:06:27;;;;;;;13.10;9.68;;;-2.60;99.90;;;;;;5071783;28;20305;-62
2024/01/12 05:08:54;;;;;;;13.55;9.52;;;-2.60;99.90;;;;;;5071931;28;20206;-62
2024/01/12 05:11:22;;;;;;;12.57;10.55;;;-2.50;99.90;;;;;;5071528;28;20745;-62
2024/01/12 05:13:50;;;;;;;12.68;9.55;;;-2.50;99.90;;;;;;5071762;28;20238;-62
2024/01/12 05:16:17;;;;;;;13.15;9.68;;;-2.50;99.90;;;;;;5071688;28;20292;-62
2024/01/12 05:18:43;;;;;;;13.68;10.70;;;-2.50;99.90;;;;;;5071551;28;20206;-62
2024/01/12 05:21:10;;;;;;;11.88;10.18;;;-2.50;99.90;;;;;;5071658;28;20225;-62
2024/01/12 05:23:37;;;;;;;12.82;9.52;;;-2.50;99.90;;;;;;5071405;28;20248;-62
2024/01/12 05:26:04;;;;;;;12.02;10.45;;;-2.40;99.90;;;;;;5071682;28;20215;-63
2024/01/12 05:28:31;;;;;;;14.73;10.73;;;-2.50;99.90;;;;;;5071509;28;20216;-62
2024/01/12 05:30:59;;;;;;;14.48;10.95;;;-2.40;99.90;;;;;;5071190;28;20632;-62
2024/01/12 05:33:26;;;;;;;12.93;9.18;;;-2.40;99.90;;;;;;5071424;28;20237;-63
2024/01/12 05:35:52;;;;;;;14.25;12.40;;;-2.40;99.90;;;;;;5071678;28;20205;-62
2024/01/12 05:38:19;;;;;;;14.10;11.98;;;-2.40;99.90;;;;;;5071426;28;20209;-62
2024/01/12 05:40:46;;;;;;;13.63;10.20;;;-2.40;99.90;;;;;;5071369;28;20285;-62
2024/01/12 05:43:14;;;;;;;12.32;9.98;;;-2.30;99.90;;;;;;5071208;28;20229;-62
2024/01/12 05:45:41;;;;;;;14.63;10.02;;;-2.30;99.90;;;;;;5071195;28;20684;-62
2024/01/12 05:48:09;;;;;;;11.00;9.35;;;-2.30;99.90;;;;;;5071501;28;20214;-62
2024/01/12 05:50:36;;;;;;;14.07;9.70;;;-2.30;99.90;;;;;;5071311;28;20229;-61
2024/01/12 05:53:02;;;;;;;12.80;10.70;;;-2.30;99.90;;;;;;5071390;28;20234;-63
2024/01/12 05:55:29;;;;;;;11.10;9.00;;;-2.20;99.90;;;;;;5071387;28;20219;-63
2024/01/12 05:57:56;;;;;;;14.15;10.27;;;-2.20;99.90;;;;;;5072780;28;20647;-62
2024/01/12 06:00:23;;;;;;;13.70;10.52;;;-2.20;99.90;;;;;;5075294;28;20215;-62
2024/01/12 06:02:50;;;;;;;13.10;10.52;;;-2.10;99.90;;;;;;5075354;28;20225;-63
2024/01/12 06:05:18;;;;;;;12.85;8.85;;;-2.10;99.90;;;;;;5075158;28;20205;-62
2024/01/12 06:07:45;;;;;;;11.25;9.48;;;-2.10;99.90;;;;;;5075183;28;20233;-61
2024/01/12 06:10:12;;;;;;;12.38;11.27;;;-2.10;99.90;;;;;;5074888;28;20245;-62
2024/01/12 06:12:39;;;;;;;13.75;9.48;;;-2.00;99.90;;;;;;5074917;28;20240;-62
2024/01/12 06:15:07;;;;;;;13.30;10.98;;;-2.00;99.90;;;;;;5075022;28;20206;-63
2024/01/12 06:17:34;;;;;;;14.95;9.80;;;-2.00;99.90;;;;;;5075041;28;20628;-62
2024/01/12 06:20:00;;;;;;;15.70;11.20;;;-2.00;99.90;;;;;;5074666;28;20233;-63
2024/01/12 06:22:29;;;;;;;12.98;10.38;;;-2.00;99.90;;;;;;5074787;28;20301;-61
2024/01/12 06:24:55;;;;;;;11.82;9.55;;;-1.90;99.90;;;;;;5075131;28;20205;-61
2024/01/12 06:27:22;;;;;;;14.57;10.13;;;-1.90;99.90;;;;;;5074635;28;20209;-63
2024/01/12 06:29:49;;;;;;;15.02;12.13;;;-1.90;99.90;;;;;;5074722;28;20210;-63
2024/01/12 06:32:16;;;;;;;13.25;9.57;;;-1.90;99.90;;;;;;5074802;28;20589;-62
2024/01/12 06:34:43;;;;;;;10.13;9.10;;;-1.90;99.90;;;;;;5074658;28;20230;-63
2024/01/12 06:37:09;;;;;;;13.43;10.00;;;-1.90;99.90;;;;;;5074724;28;20629;-62
2024/01/12 06:39:39;;;;;;;11.60;9.60;;;-1.90;99.90;;;;;;5074264;28;20296;-61
2024/01/12 06:42:06;;;;;;;11.70;9.82;;;-1.90;99.90;;;;;;5074708;28;20301;-62
2024/01/12 06:44:33;;;;;;;10.85;9.75;;;-1.90;99.90;;;;;;5074562;28;20312;-62
2024/01/12 06:46:59;;;;;;;12.20;9.80;;;-1.90;99.90;;;;;;5074390;28;20216;-63
2024/01/12 06:49:26;;;;;;;12.02;8.90;;;-1.90;99.90;;;;;;5074150;28;20209;-62
2024/01/12 06:51:53;;;;;;;18.73;12.48;;;-1.80;99.90;;;;;;5074216;28;20222;-62
2024/01/12 06:54:20;;;;;;;18.17;12.07;;;-1.80;99.90;;;;;;5074151;28;20240;-62
2024/01/12 06:56:48;;;;;;;13.07;10.15;;;-1.80;99.90;;;;;;5074271;28;20208;-62
2024/01/12 06:59:15;;;;;;;14.20;12.32;;;-1.80;99.90;;;;;;5074157;28;20296;-63
2024/01/12 07:01:42;;;;;;;14.23;11.68;;;-1.70;99.90;;;;;;5074121;28;20209;-62
2024/01/12 07:04:08;;;;;;;12.15;9.38;;;-1.70;99.90;;;;;;5074210;28;20239;-61
2024/01/12 07:06:35;;;;;;;15.20;10.18;;;-1.70;99.90;;;;;;5074031;28;20206;-62
2024/01/12 07:09:02;;;;;;;15.75;11.20;;;-1.70;99.90;;;;;;5073213;28;20312;-62
2024/01/12 07:11:29;;;;;;;11.38;10.10;;;-1.70;99.90;;;;;;5073714;28;20791;-63
2024/01/12 07:13:57;;;;;;;15.30;10.00;;;-1.70;99.90;;;;;;5073896;28;20275;-62
2024/01/12 07:16:24;;;;;;;13.95;12.52;;;-1.60;99.90;;;;;;5073973;28;20209;-63
2024/01/12 07:18:50;;;;;;;18.17;11.80;;;-1.60;99.90;;;;;;5073789;28;20214;-62
2024/01/12 07:21:17;;;;;;;15.50;13.23;;;-1.60;99.90;;;;;;5073591;28;20319;-61
2024/01/12 07:23:44;;;;;;;15.80;12.00;;;-1.60;99.90;;;;;;5097141;22;20240;-60
2024/01/12 07:26:11;;;;;;;16.95;12.00;;;-1.60;99.90;;;;;;5073720;28;20209;-61
2024/01/12 07:28:38;;;;;;;15.15;10.40;;;-1.60;99.90;;;;;;5073531;28;20219;-59
2024/01/12 07:31:06;;;;;;;13.05;11.63;;;-1.60;99.90;;;;;;5073178;28;20226;-59
2024/01/12 07:33:33;;;;;;;11.90;10.85;;;-1.60;99.90;;;;;;5073328;28;20232;-61
2024/01/12 07:36:00;;;;;;;15.85;10.98;;;-1.50;99.90;;;;;;5073621;28;20216;-57
2024/01/12 07:38:27;;;;;;;14.27;9.93;;;-1.50;99.90;;;;;;5073480;28;20655;-60
2024/01/12 07:40:53;;;;;;;15.85;13.50;;;-1.50;99.90;;;;;;5073122;28;20208;-61
2024/01/12 07:43:20;;;;;;;12.50;11.00;;;-1.50;99.90;;;;;;5073223;28;20323;-61
2024/01/12 07:45:48;;;;;;;13.38;11.52;;;-1.50;99.90;;;;;;5073082;28;20209;-60
2024/01/12 07:48:16;;;;;;;13.50;11.82;;;-1.40;99.90;;;;;;5073405;28;20209;-60
2024/01/12 07:50:43;;;;;;;16.20;12.20;;;-1.40;99.90;;;;;;5073109;28;20232;-60
2024/01/12 07:53:10;;;;;;;16.20;11.35;;;-1.40;99.90;;;;;;5073040;28;20707;-59
2024/01/12 07:55:37;;;;;;;12.95;11.43;;;-1.30;99.90;;;;;;5073156;28;20214;-61
2024/01/12 07:58:04;;;;;;;13.40;12.02;;;-1.30;99.90;;;;;;5072883;28;20205;-61
2024/01/12 08:00:31;;;;;;;17.85;13.20;;;-1.30;99.90;;;;;;5072635;28;20691;-60
2024/01/12 08:02:58;;;;;;;16.40;13.70;;;-1.30;99.90;;;;;;5073112;28;20206;-58
2024/01/12 08:05:28;;;;;;;19.77;14.57;;;-1.30;99.90;;;;;;5073011;28;20663;-59
2024/01/12 08:07:55;;;;;;;19.27;15.73;;;-1.20;99.90;;;;;;5073048;28;20297;-59
2024/01/12 08:10:22;;;;;;;15.98;13.00;;;-1.20;99.90;;;;;;5072646;28;20636;-60
2024/01/12 08:12:49;;;;;;;16.75;14.77;;;-1.20;99.90;;;;;;5072702;28;20216;-58
2024/01/12 08:15:16;;;;;;;18.33;16.50;;;-1.20;99.90;;;;;;5072376;28;20229;-60
2024/01/12 08:17:43;;;;;;;16.75;14.85;;;-1.10;99.90;;;;;;5072196;28;20206;-61
2024/01/12 08:20:11;;;;;;;15.85;12.98;;;-1.10;99.90;;;;;;5071623;28;20198;-60
2024/01/12 08:22:39;;;;;;;17.30;15.05;;;-1.10;99.90;;;;;;5070500;28;20204;-60
2024/01/12 08:25:07;;;;;;;18.90;13.77;;;-1.10;99.90;;;;;;5072009;28;20235;-59
2024/01/12 08:27:34;;;;;;;16.60;13.68;;;-1.10;99.90;;;;;;5072261;28;20236;-60
2024/01/12 08:30:01;;;;;;;15.80;13.93;;;-1.10;99.90;;;;;;5072086;28;20694;-57
2024/01/12 08:32:28;;;;;;;16.65;14.00;;;-1.00;99.90;;;;;;5072307;28;20232;-57
2024/01/12 08:34:55;;;;;;;20.33;15.35;;;-1.00;99.90;;;;;;5072313;28;20228;-61
2024/01/12 08:37:22;;;;;;;22.45;18.67;;;-1.00;99.90;;;;;;5062763;28;20699;-58
2024/01/12 08:39:51;;;;;;;22.98;17.35;;;-1.00;99.90;;;;;;5066484;28;20205;-60
2024/01/12 08:42:18;;;;;;;21.55;17.38;;;-0.90;99.90;;;;;;5071679;28;20206;-60
2024/01/12 08:44:44;;;;;;;25.92;18.20;;;-0.90;99.90;;;;;;5071699;28;20722;-58
2024/01/12 08:47:11;;;;;;;23.75;18.15;;;-0.90;99.90;;;;;;5063193;28;20213;-59
2024/01/12 08:49:38;;;;;;;19.52;17.38;;;-0.80;99.90;;;;;;5069330;28;20755;-59
2024/01/12 08:52:05;;;;;;;21.75;17.13;;;-0.80;99.90;;;;;;5069137;28;20231;-60
2024/01/12 08:54:32;;;;;;;20.48;16.65;;;-0.80;99.90;;;;;;5070501;28;20652;-59
2024/01/12 08:57:00;;;;;;;19.38;17.13;;;-0.80;99.90;;;;;;5071828;28;20206;-60
2024/01/12 08:59:28;;;;;;;22.27;19.42;;;-0.70;99.90;;;;;;5071152;28;20212;-59
2024/01/12 09:01:56;;;;;;;28.17;19.65;;;-0.70;99.90;;;;;;5071515;28;20206;-61
2024/01/12 09:04:23;;;;;;;22.98;20.60;;;-0.70;99.90;;;;;;5071651;28;20230;-60
2024/01/12 09:06:50;;;;;;;24.50;17.55;;;-0.70;99.90;;;;;;5069112;28;20206;-60
2024/01/12 09:09:18;;;;;;;21.35;17.80;;;-0.60;99.90;;;;;;5069776;28;20214;-60
2024/01/12 09:11:45;;;;;;;19.52;17.63;;;-0.60;99.90;;;;;;5071069;28;20232;-60
2024/01/12 09:14:13;;;;;;;19.75;16.85;;;-0.60;99.90;;;;;;5071280;28;20313;-59
2024/01/12 09:16:40;;;;;;;22.88;19.35;;;-0.50;99.90;;;;;;5071425;28;20620;-57
2024/01/12 09:19:07;;;;;;;27.08;21.15;;;-0.50;99.90;;;;;;5071326;28;20212;-60
2024/01/12 09:21:34;;;;;;;21.15;19.05;;;-0.50;99.90;;;;;;5070973;28;20236;-59
2024/01/12 09:24:01;;;;;;;22.00;17.40;;;-0.50;99.90;;;;;;5071328;28;20230;-58
2024/01/12 09:26:28;;;;;;;24.42;18.55;;;-0.50;99.90;;;;;;5071079;28;20755;-60
2024/01/12 09:28:55;;;;;;;28.38;21.42;;;-0.40;99.90;;;;;;5071202;28;20292;-60
2024/01/12 09:31:23;;;;;;;23.25;20.02;;;-0.40;99.90;;;;;;5070171;28;20221;-60
2024/01/12 09:33:51;;;;;;;26.80;21.10;;;-0.40;99.90;;;;;;5070750;28;20239;-60
2024/01/12 09:36:18;;;;;;;24.83;19.50;;;-0.40;99.90;;;;;;5070311;28;20225;-60
2024/01/12 09:38:44;;;;;;;24.02;18.30;;;-0.30;99.90;;;;;;5070805;28;20212;-60
2024/01/12 09:41:10;;;;;;;30.33;20.20;;;-0.30;99.90;;;;;;5070834;28;20280;-61
2024/01/12 09:43:38;;;;;;;23.77;19.23;;;-0.30;99.90;;;;;;5070956;28;20305;-61
2024/01/12 09:46:08;;;;;;;25.95;21.20;;;-0.20;99.90;;;;;;5070915;28;20205;-62
2024/01/12 09:48:37;;;;;;;28.45;19.85;;;-0.20;99.90;;;;;;5071299;28;20281;-62
2024/01/12 09:51:06;;;;;;;26.88;23.00;;;-0.10;99.90;;;;;;5070617;28;20276;-61
2024/01/12 09:53:33;;;;;;;19.20;17.02;;;-0.10;99.90;;;;;;5070990;28;20733;-62
2024/01/12 09:56:00;;;;;;;21.70;19.58;;;-0.10;99.90;;;;;;5070235;28;20589;-61
2024/01/12 09:58:27;;;;;;;20.52;17.95;;;0.00;99.90;;;;;;5070623;28;20208;-61
2024/01/12 10:00:54;;;;;;;24.38;19.75;;;0.00;99.90;;;;;;5059394;28;20577;-62
2024/01/12 10:03:21;;;;;;;26.45;19.70;;;0.00;99.90;;;;;;5070889;28;20674;-61
2024/01/12 10:05:49;;;;;;;28.60;19.52;;;0.00;99.90;;;;;;5070829;28;20201;-61
2024/01/12 10:08:16;;;;;;;25.05;19.85;;;0.10;99.90;;;;;;5070462;28;20745;-62
2024/01/12 10:10:43;;;;;;;23.17;19.20;;;0.10;99.90;;;;;;5070850;28;20297;-62
2024/01/12 10:13:10;;;;;;;21.23;18.83;;;0.10;99.90;;;;;;5070928;28;20225;-62
2024/01/12 10:15:41;;;;;;;22.00;17.98;;;0.10;99.90;;;;;;5070798;28;20208;-61
2024/01/12 10:18:07;;;;;;;19.77;17.08;;;0.10;99.90;;;;;;5070484;28;20220;-61
2024/01/12 10:20:36;;;;;;;18.40;15.15;;;0.20;99.90;;;;;;5070652;28;20293;-61
2024/01/12 10:23:05;;;;;;;21.60;16.55;;;0.20;99.90;;;;;;5070497;28;20293;-61
2024/01/12 10:25:32;;;;;;;21.23;18.38;;;0.20;99.90;;;;;;5068620;28;20281;-62
2024/01/12 10:27:59;;;;;;;21.92;19.63;;;0.30;99.90;;;;;;5070276;28;20205;-62
2024/01/12 10:30:26;;;;;;;20.17;17.33;;;0.20;99.90;;;;;;5070167;28;20233;-62
2024/01/12 10:32:54;;;;;;;20.08;15.40;;;0.20;99.90;;;;;;5067204;28;20228;-62
2024/01/12 10:35:21;;;;;;;25.08;16.15;;;0.30;99.90;;;;;;5070141;28;20210;-62
2024/01/12 10:37:49;;;;;;;19.38;17.35;;;0.30;99.90;;;;;;5070231;28;20313;-62
2024/01/12 10:40:18;;;;;;;17.27;15.30;;;0.30;99.90;;;;;;5069954;28;20210;-62
2024/01/12 10:42:49;;;;;;;13.65;12.23;;;0.30;99.90;;;;;;5070006;28;20200;-61
2024/01/12 10:45:21;;;;;;;16.33;11.50;;;0.40;99.90;;;;;;5072091;28;20205;-62
2024/01/12 10:47:56;;;;;;;14.32;11.43;;;0.40;99.90;;;;;;5073541;28;20212;-62
2024/01/12 10:50:25;;;;;;;14.15;12.30;;;0.40;99.90;;;;;;5073935;28;20201;-62
2024/01/12 10:53:05;;;;;;;17.15;12.88;;;0.40;99.90;;;;;;5070793;28;20615;-62
2024/01/12 10:55:35;;;;;;;15.98;11.77;;;0.40;99.90;;;;;;5066574;28;20372;-61
2024/01/12 10:58:03;;;;;;;15.07;13.63;;;0.40;99.90;;;;;;5073509;28;20584;-62
2024/01/12 11:00:31;;;;;;;17.98;12.38;;;0.40;99.90;;;;;;5070145;28;20210;-62
2024/01/12 11:03:00;;;;;;;15.63;11.35;;;0.40;99.90;;;;;;5072920;28;20198;-60
2024/01/12 11:05:28;;;;;;;15.20;10.88;;;0.40;99.90;;;;;;5072560;28;20232;-61
2024/01/12 11:07:58;;;;;;;12.82;10.15;;;0.50;99.90;;;;;;5072751;28;20209;-62
2024/01/12 11:10:27;;;;;;;12.18;10.75;;;0.50;99.90;;;;;;5072520;28;20668;-62
2024/01/12 11:12:56;;;;;;;11.10;10.07;;;0.50;99.90;;;;;;5073122;28;20226;-62
2024/01/12 11:15:23;;;;;;;11.27;10.10;;;0.50;99.90;;;;;;5073121;28;20206;-62
2024/01/12 11:17:50;;;;;;;11.68;10.48;;;0.50;99.90;;;;;;5073053;28;20295;-62
2024/01/12 11:20:20;;;;;;;11.10;8.88;;;0.40;99.90;;;;;;5072608;28;20240;-62
2024/01/12 11:22:48;;;;;;;8.45;7.57;;;0.50;99.90;;;;;;5072707;28;20205;-62
2024/01/12 11:25:18;;;;;;;9.35;7.78;;;0.50;99.90;;;;;;5072744;28;20309;-61
2024/01/12 11:27:52;;;;;;;10.55;9.35;;;0.40;99.90;;;;;;5072801;28;20296;-61
2024/01/12 11:30:21;;;;;;;9.23;7.90;;;0.40;99.90;;;;;;5059736;28;20212;-61
2024/01/12 11:32:49;;;;;;;9.73;7.18;;;0.40;99.90;;;;;;5072338;28;20225;-62
2024/01/12 11:35:17;;;;;;;10.40;8.40;;;0.40;99.90;;;;;;5071858;28;20202;-62
2024/01/12 11:37:45;;;;;;;8.88;7.93;;;0.40;99.90;;;;;;5072492;28;20216;-61
2024/01/12 11:40:13;;;;;;;8.55;7.10;;;0.40;99.90;;;;;;5072429;28;20296;-62
2024/01/12 11:42:41;;;;;;;6.20;4.75;;;0.40;99.90;;;;;;5072731;28;20198;-62
2024/01/12 11:45:09;;;;;;;7.68;6.07;;;0.40;99.90;;;;;;5072720;28;20657;-62
2024/01/12 11:47:38;;;;;;;6.63;6.00;;;0.40;99.90;;;;;;5072209;28;20290;-62
2024/01/12 11:50:06;;;;;;;6.82;6.18;;;0.50;99.90;;;;;;5070476;28;20197;-62
2024/01/12 11:52:33;;;;;;;7.88;7.10;;;0.40;99.90;;;;;;5072072;28;20232;-62
2024/01/12 11:55:00;;;;;;;6.90;6.10;;;0.40;99.90;;;;;;5072049;28;20700;-61
2024/01/12 11:57:27;;;;;;;7.22;6.53;;;0.40;99.90;;;;;;5072085;28;20305;-62
2024/01/12 11:59:55;;;;;;;15.07;8.90;;;0.40;99.90;;;;;;5072151;28;20688;-61
2024/01/12 12:02:23;;;;;;;7.78;6.07;;;0.40;99.90;;;;;;5072364;28;20305;-61
2024/01/12 12:04:53;;;;;;;5.70;5.05;;;0.50;99.90;;;;;;5072069;28;20316;-61
2024/01/12 12:07:25;;;;;;;8.23;7.25;;;0.50;99.90;;;;;;5072209;28;20205;-62
2024/01/12 12:09:52;;;;;;;5.75;5.20;;;0.50;99.90;;;;;;5068522;28;20212;-62
2024/01/12 12:12:19;;;;;;;6.93;6.20;;;0.50;99.90;;;;;;5069324;28;20236;-61
2024/01/12 12:15:07;;;;;;;9.25;6.22;;;0.50;99.90;;;;;;5069569;28;20300;-62
2024/01/12 12:17:36;;;;;;;9.35;5.80;;;0.50;99.90;;;;;;5063533;28;20208;-62
2024/01/12 12:20:10;;;;;;;6.10;4.72;;;0.50;99.90;;;;;;5069039;28;20198;-62
2024/01/12 12:22:38;;;;;;;4.88;3.65;;;0.50;99.90;;;;;;5061945;28;20202;-62
2024/01/12 12:25:08;;;;;;;5.72;4.47;;;0.60;99.90;;;;;;5069222;28;20252;-63
2024/01/12 12:27:35;;;;;;;7.38;5.60;;;0.50;99.90;;;;;;5071492;28;20209;-63
2024/01/12 12:30:02;;;;;;;6.95;5.13;;;0.50;99.90;;;;;;5070934;28;20212;-61
2024/01/12 12:32:29;;;;;;;8.80;6.90;;;0.50;99.90;;;;;;5071508;28;20226;-62
2024/01/12 12:34:56;;;;;;;8.82;5.82;;;0.60;99.90;;;;;;5071024;28;20787;-62
2024/01/12 12:37:24;;;;;;;8.93;8.23;;;0.60;99.90;;;;;;5071101;28;20212;-62